<<    Dezember 2014    >>
Datum    Temp.       Tempmin      Tempmax    Taup.       Taup.min      Taup.max    Feuchte    Feuchtemin    Feuchtemax    Druck    Druckmin    Druckmax    Regen    Wind    Benmax  
  01.12.2014  4,2    3,4    00:24    5,0    17:20  0,8    -0,3    23:05    1,3    00:00  78,7    73    18:51    86    00:00  1011,9    1011    00:00    1013    00:22  0,0  2,4  11,9  
  02.12.2014  3,2    2,5    23:59    4,2    12:19  -0,1    -1,0    23:45    0,8    12:39  79,3    76    00:00    84    06:44  1014,2    1012    00:00    1018    22:37  0,0  2,1  11,5  
  03.12.2014  1,1    0,3    18:26    2,5    00:00  -2,0    -2,9    18:09    -1,0    00:00  79,7    78    00:00    83    11:32  1019,8    1017    00:52    1021    09:22  10,0  3,6  13,0  
  04.12.2014  2,8    1,3    00:00    3,9    11:29  -0,4    -2,0    00:00    0,5    11:17  79,9    78    11:31    82    05:12  1017,2    1015    13:51    1021    00:07  0,0  1,2  6,8  
  05.12.2014  4,3    2,8    01:36    5,8    14:52  1,3    0,2    00:00    2,4    15:28  81,1    76    11:44    85    06:29  1018,7    1016    00:00    1020    20:51  0,0  0,9  10,8  
  06.12.2014  5,3    4,5    18:43    6,5    13:15  3,6    1,5    00:00    4,6    10:17  88,8    80    00:00    94    20:57  1023,3    1019    00:36    1026    19:36  0,0  0,9  8,6  
  07.12.2014  5,0    2,9    09:35    7,2    13:07  3,1    1,0    13:12    5,0    20:23  88,0    65    13:12    96    05:05  1020,6    1015    18:36    1025    00:00  1,8  2,3  14,8  
  08.12.2014  3,4    1,2    08:55    6,3    14:17  1,7    0,0    08:55    4,3    00:00  88,9    73    14:20    95    05:47  1018,7    1017    00:05    1020    23:59  4,8  1,8  10,4  
  09.12.2014  3,3    1,9    19:08    5,2    13:20  2,4    1,0    19:08    4,0    12:15  93,9    87    23:59    97    09:06  1025,7    1019    00:05    1029    12:20  0,9  1,2  11,2  
  10.12.2014  4,9    2,2    23:01    8,1    12:35  2,5    -1,8    05:01    5,9    12:35  84,6    63    05:01    93    08:04  1018,0    1015    17:20    1026    00:00  1,9  3,9  21,2  
  11.12.2014  5,6    2,6    00:00    8,7    14:38  2,7    0,9    00:15    4,0    12:34  82,3    67    14:38    92    01:26  1011,0    1007    13:05    1017    00:05  1,8  5,4  32,0  
  12.12.2014  8,5    6,0    01:49    10,8    14:58  5,5    3,8    00:00    7,9    18:29  82,0    69    11:28    94    02:45  1002,5    997    15:04    1010    00:05  9,6  5,3  22,7  
  13.12.2014  4,3    2,9    19:31    6,5    00:00  3,4    2,2    16:06    5,4    00:00  94,2    89    08:56    96    04:14  1010,9    1004    00:00    1015    17:34  2,7  1,2  8,6  
  14.12.2014  2,2    -0,3    22:12    5,0    14:09  1,3    -1,2    22:12    3,6    12:19  94,1    83    14:10    98    04:31  1017,2    1015    00:00    1019    08:49  0,0  1,3  8,6  
  15.12.2014  3,6    0,1    00:32    5,9    14:14  2,1    -1,1    07:03    4,9    13:07  90,4    78    07:03    96    11:38  1015,1    1013    05:34    1017    19:33  1,2  2,5  12,6  
  16.12.2014  5,4    2,7    23:09    7,4    14:42  4,0    1,5    23:09    6,1    11:55  90,9    81    15:38    97    06:15  1014,2    1013    03:03    1016    00:00  0,0  2,1  10,8  
  17.12.2014  6,1    2,8    00:05    9,9    23:04  5,4    1,7    06:39    9,6    23:04  95,0    83    06:39    98    23:59  1008,8    1003    13:03    1015    00:00  5,5  2,6  13,0  
  18.12.2014  11,3    9,5    05:37    13,3    18:13  10,5    9,2    05:37    12,5    17:25  95,2    82    20:15    98    00:00  1011,9    1010    00:00    1014    20:03  2,1  3,5  23,4  
  19.12.2014  10,0    5,2    23:50    12,8    01:04  7,8    2,7    23:50    10,6    00:24  86,4    78    17:34    95    13:57  1014,1    1011    06:18    1020    23:59  6,6  5,6  23,4  
  20.12.2014  5,9    3,6    06:22    7,9    13:07  2,9    1,5    05:42    3,9    23:00  81,2    71    13:22    90    22:47  1022,1    1019    14:02    1028    23:32  1,9  5,8  22,7  
  21.12.2014  6,7    3,9    07:21    8,7    21:05  4,3    2,8    07:10    5,7    19:10  85,2    76    13:50    94    07:32  1027,8    1023    23:32    1030    02:32  0,0  4,2  19,8  
  22.12.2014  10,4    8,6    00:00    11,8    13:35  7,1    4,9    00:03    9,3    22:03  80,0    74    12:47    90    22:16  1021,1    1019    13:17    1024    00:00  0,0  7,0  28,1  
  23.12.2014  11,3    10,0    23:59    12,2    01:47  6,9    4,4    23:19    8,8    00:03  74,4    68    23:19    83    00:00  1019,6    1019    23:59    1021    12:31  0,0  6,0  25,6  
  24.12.2014  8,9    6,0    23:59    10,1    00:09  5,3    3,0    02:05    8,4    17:31  79,0    64    02:05    94    17:31  1017,4    1015    12:31    1021    23:46  3,9  5,2  20,5  
  25.12.2014  4,6    2,3    20:53    7,1    14:03  2,2    0,9    05:06    3,7    13:36  84,7    76    02:20    93    21:03  1024,7    1021    00:00    1028    23:59  1,8  3,6  20,2  
  26.12.2014  3,0    1,7    01:53    5,0    13:48  2,1    0,8    01:53    3,7    13:44  93,9    88    15:00    96    02:45  1027,8    1020    23:01    1031    07:16  0,9  1,8  12,6  
  27.12.2014  1,3    0,1    23:59    2,9    02:57  -0,0    -4,8    23:59    1,1    00:00  91,1    70    23:59    97    09:04  1003,2    997    10:30    1020    00:00  19,6  4,7  19,8  
  28.12.2014  -2,9    -5,1    20:39    0,1    00:00  -8,1    -10,1    09:06    -4,8    00:00  68,3    57    13:39    81    22:36  1023,7    1007    00:00    1035    21:30  0,0  1,0  13,0  
  29.12.2014  0,5    -3,0    00:00    3,6    13:23  -2,1    -5,8    00:00    1,6    13:23  83,3    73    15:27    91    08:02  1033,4    1029    07:00    1038    21:15  1,8  3,3  23,8  
  30.12.2014  2,8    0,3    00:00    4,4    13:06  1,0    -2,0    00:00    2,6    13:06  88,2    83    17:29    94    07:04  1035,6    1035    05:00    1038    00:00  0,0  2,5  10,1  
  31.12.2014  3,8    0,3    23:59    5,6    14:22  2,6    -0,4    23:58    4,7    14:23  92,2    87    00:00    95    23:59  1035,1    1033    05:29    1036    23:59  0,0  1,2  10,1  
 
  Gesamt  4,9  -5,1            13,3            2,6  -10,1            12,5            85,6  57            98            1018,9  997            1038            78,7  3,1  32,0  
 
  Mittelwert  4,9  2,7            6,9            2,6  0,3            4,6            85,6  75,6            92,2            1018,9  1015,0            1023,0            2,5  3,1  16,2  
  Minimum  -2,9  -5,1            0,1            -8,1  -10,1            -4,8            68,3  57,0            81,0            1002,5  997,0            1010,0            0,0  0,9  6,8  
  Maximum  11,3  10,0            13,3            10,5  9,2            12,5            95,2  89,0            98,0            1035,6  1035,0            1038,0            19,6  7,0  32,0  

  Heie Tage    Tmax >=30C     0  
  Sommertage    Tmax >=25C     0  
  Warme Tage    Tmax >=20C     0  
  Kalte Tage    Tmax  <10C     25  
  Frosttage    Tmin  <0C     3  
  Eistage    Tmax  <0C     0  
  Regentage > 0 mm    18  
  Regentage > 2 mm    9  
  Regentage > 10 mm    1  
  Regentage > 20 mm    0